createdAt,value
2022-08-17T00:00:42.861Z,25.79
2022-08-17T00:03:17.814Z,25.70
2022-08-17T00:05:44.119Z,25.75
2022-08-17T00:08:10.407Z,25.72
2022-08-17T00:10:36.704Z,25.60
2022-08-17T00:13:03.013Z,25.48
2022-08-17T00:15:29.312Z,25.44
2022-08-17T00:17:55.629Z,25.41
2022-08-17T00:20:30.477Z,25.36
2022-08-17T00:23:01.248Z,25.18
2022-08-17T00:25:27.540Z,25.24
2022-08-17T00:27:53.846Z,25.04
2022-08-17T00:30:20.274Z,25.12
2022-08-17T00:33:13.838Z,25.10
2022-08-17T00:35:32.890Z,25.09
2022-08-17T00:37:59.196Z,25.01
2022-08-17T00:40:25.491Z,24.99
2022-08-17T00:42:51.966Z,24.97
2022-08-17T00:45:20.226Z,24.96
2022-08-17T00:47:46.583Z,24.83
2022-08-17T00:50:12.882Z,24.85
2022-08-17T00:52:39.177Z,24.85
2022-08-17T00:55:05.462Z,24.93
2022-08-17T00:57:31.754Z,24.91
2022-08-17T01:00:02.774Z,24.88
2022-08-17T01:02:29.923Z,24.87
2022-08-17T01:05:00.760Z,24.78
2022-08-17T01:07:27.709Z,24.69
2022-08-17T01:09:53.939Z,24.58
2022-08-17T01:12:20.226Z,24.56
2022-08-17T01:14:46.574Z,24.68
2022-08-17T01:17:12.872Z,24.60
2022-08-17T01:19:39.225Z,24.58
2022-08-17T01:22:05.525Z,24.50
2022-08-17T01:24:31.870Z,24.55
2022-08-17T01:27:00.176Z,24.54
2022-08-17T01:29:26.571Z,24.46
2022-08-17T01:31:52.868Z,24.40
2022-08-17T01:34:19.407Z,24.35
2022-08-17T01:36:46.764Z,24.30
2022-08-17T01:39:13.070Z,24.30
2022-08-17T01:41:39.374Z,24.33
2022-08-17T01:44:05.656Z,24.17
2022-08-17T01:46:31.992Z,24.12
2022-08-17T01:48:58.299Z,24.09
2022-08-17T01:51:24.871Z,24.00
2022-08-17T01:53:51.187Z,23.60
2022-08-17T01:56:17.501Z,23.67
2022-08-17T01:58:43.791Z,23.82
2022-08-17T02:01:10.161Z,23.81
2022-08-17T02:03:36.552Z,23.79
2022-08-17T02:06:02.860Z,23.82
2022-08-17T02:08:37.287Z,23.76
2022-08-17T02:11:05.926Z,23.65
2022-08-17T02:13:38.027Z,23.60
2022-08-17T02:16:04.356Z,23.56
2022-08-17T02:18:30.673Z,23.56
2022-08-17T02:20:57.012Z,23.60
2022-08-17T02:23:23.302Z,23.57
2022-08-17T02:25:49.600Z,23.54
2022-08-17T02:28:15.947Z,23.48
2022-08-17T02:30:50.104Z,23.45
2022-08-17T02:33:41.651Z,23.06
2022-08-17T02:36:09.643Z,23.10
2022-08-17T02:38:36.371Z,23.22
2022-08-17T02:41:02.698Z,22.99
2022-08-17T02:43:29.056Z,23.10
2022-08-17T02:45:55.374Z,23.11
2022-08-17T02:48:31.015Z,23.08
2022-08-17T02:50:58.226Z,23.00
2022-08-17T02:53:24.527Z,22.91
2022-08-17T02:55:52.478Z,23.00
2022-08-17T02:58:18.956Z,22.98
2022-08-17T03:01:01.927Z,22.90
2022-08-17T03:03:28.220Z,22.73
2022-08-17T03:05:54.535Z,22.80
2022-08-17T03:08:20.903Z,22.77
2022-08-17T03:10:47.213Z,22.76
2022-08-17T03:13:14.366Z,22.71
2022-08-17T03:15:43.895Z,22.75
2022-08-17T03:18:24.295Z,22.66
2022-08-17T03:20:51.557Z,22.62
2022-08-17T03:23:18.603Z,22.58
2022-08-17T03:25:50.376Z,22.48
2022-08-17T03:28:19.509Z,22.49
2022-08-17T03:30:45.837Z,22.51
2022-08-17T03:33:12.129Z,22.47
2022-08-17T03:35:40.228Z,22.46
2022-08-17T03:38:06.536Z,22.40
2022-08-17T03:40:55.403Z,22.35
2022-08-17T03:43:19.138Z,22.33
2022-08-17T03:46:04.390Z,22.30
2022-08-17T03:48:50.619Z,22.34
2022-08-17T03:51:35.416Z,22.34
2022-08-17T03:54:20.248Z,22.28
2022-08-17T03:56:46.565Z,22.29
2022-08-17T03:59:20.757Z,22.27
2022-08-17T04:01:47.689Z,22.32
2022-08-17T04:04:14.019Z,22.29
2022-08-17T04:06:40.330Z,22.34
2022-08-17T04:09:06.624Z,22.25
2022-08-17T04:11:33.239Z,22.33
2022-08-17T04:13:59.531Z,22.29
2022-08-17T04:16:25.832Z,22.31
2022-08-17T04:18:52.142Z,22.29
2022-08-17T04:21:18.631Z,22.30
2022-08-17T04:23:44.929Z,22.24
2022-08-17T04:26:11.228Z,22.21
2022-08-17T04:28:58.524Z,22.25
2022-08-17T04:31:24.815Z,22.28
2022-08-17T04:33:51.134Z,22.32
2022-08-17T04:36:17.442Z,22.36
2022-08-17T04:38:43.738Z,22.41
2022-08-17T04:41:28.573Z,22.54
2022-08-17T04:43:58.464Z,22.56
2022-08-17T04:46:24.754Z,22.60
2022-08-17T04:48:51.073Z,22.71
2022-08-17T04:51:17.373Z,22.73
2022-08-17T04:53:44.306Z,22.81
2022-08-17T04:56:18.959Z,22.78
2022-08-17T04:58:45.408Z,22.79
2022-08-17T05:01:11.771Z,22.85
2022-08-17T05:03:38.317Z,22.97
2022-08-17T05:06:04.625Z,22.92
2022-08-17T05:08:30.954Z,22.93
2022-08-17T05:10:57.247Z,22.85
2022-08-17T05:13:23.552Z,22.87
2022-08-17T05:15:49.838Z,23.00
2022-08-17T05:18:16.146Z,23.18
2022-08-17T05:20:42.434Z,23.37
2022-08-17T05:23:08.750Z,23.27
2022-08-17T05:25:36.213Z,23.54
2022-08-17T05:28:03.776Z,23.73
2022-08-17T05:30:30.062Z,23.62
2022-08-17T05:32:56.464Z,23.65
2022-08-17T05:35:22.756Z,23.77
2022-08-17T05:37:52.270Z,23.77
2022-08-17T05:40:19.852Z,23.94
2022-08-17T05:42:46.186Z,23.94
2022-08-17T05:45:12.517Z,24.13
2022-08-17T05:47:38.896Z,24.18
2022-08-17T05:50:09.467Z,24.32
2022-08-17T05:52:36.323Z,24.21
2022-08-17T05:55:02.632Z,24.37
2022-08-17T05:57:29.031Z,24.28
2022-08-17T05:59:55.897Z,24.52
2022-08-17T06:02:22.179Z,24.64
2022-08-17T06:04:48.502Z,24.68
2022-08-17T06:07:14.801Z,24.62
2022-08-17T06:09:41.097Z,24.83
2022-08-17T06:12:07.432Z,24.94
2022-08-17T06:14:40.679Z,24.99
2022-08-17T06:17:07.005Z,24.83
2022-08-17T06:19:33.308Z,25.18
2022-08-17T06:21:59.628Z,25.25
2022-08-17T06:24:27.379Z,25.29
2022-08-17T06:26:53.630Z,24.94
2022-08-17T06:29:19.912Z,25.29
2022-08-17T06:31:46.225Z,25.40
2022-08-17T06:34:12.527Z,25.01
2022-08-17T06:36:40.082Z,25.06
2022-08-17T06:39:06.563Z,25.14
2022-08-17T06:41:36.503Z,25.21
2022-08-17T06:44:04.159Z,25.60
2022-08-17T06:46:30.533Z,25.98
2022-08-17T06:48:56.848Z,26.19
2022-08-17T06:51:23.171Z,26.07
2022-08-17T06:53:49.512Z,25.96
2022-08-17T06:56:15.823Z,25.93
2022-08-17T06:58:43.218Z,25.85
2022-08-17T07:01:09.579Z,26.02
2022-08-17T07:03:37.592Z,26.33
2022-08-17T07:06:04.015Z,26.39
2022-08-17T07:08:35.048Z,26.61
2022-08-17T07:11:01.726Z,27.02
2022-08-17T07:13:29.299Z,26.30
2022-08-17T07:15:57.173Z,26.43
2022-08-17T07:18:23.560Z,26.90
2022-08-17T07:20:52.076Z,27.23
2022-08-17T07:23:19.082Z,27.31
2022-08-17T07:25:45.371Z,27.06
2022-08-17T07:28:12.936Z,26.92
2022-08-17T07:30:45.774Z,26.60
2022-08-17T07:33:13.571Z,26.96
2022-08-17T07:35:41.348Z,27.40
2022-08-17T07:38:25.485Z,27.92
2022-08-17T07:40:57.438Z,27.81
2022-08-17T07:43:23.881Z,27.80
2022-08-17T07:46:09.085Z,27.90
2022-08-17T07:48:35.370Z,28.10
2022-08-17T07:51:04.717Z,27.73
2022-08-17T07:53:31.994Z,27.96
2022-08-17T07:55:58.382Z,27.74
2022-08-17T07:58:25.831Z,27.91
2022-08-17T08:00:52.122Z,28.25
2022-08-17T08:03:18.430Z,28.09
2022-08-17T08:05:49.470Z,28.39
2022-08-17T08:08:17.496Z,28.64
2022-08-17T08:10:45.067Z,28.75
2022-08-17T08:13:14.426Z,28.50
2022-08-17T08:15:40.915Z,28.79
2022-08-17T08:18:11.584Z,29.23
2022-08-17T08:20:53.279Z,29.39
2022-08-17T08:23:20.444Z,29.59
2022-08-17T08:25:49.701Z,29.80
2022-08-17T08:28:20.143Z,29.96
2022-08-17T08:30:47.046Z,29.48
2022-08-17T08:33:13.403Z,29.19
2022-08-17T08:35:40.060Z,29.62
2022-08-17T08:38:07.408Z,29.19
2022-08-17T08:40:33.716Z,29.60
2022-08-17T08:43:00.001Z,30.06
2022-08-17T08:45:26.312Z,29.73
2022-08-17T08:47:52.851Z,30.01
2022-08-17T08:50:37.321Z,30.21
2022-08-17T08:53:04.708Z,30.18
2022-08-17T08:55:34.517Z,30.63
2022-08-17T08:58:00.834Z,30.37
2022-08-17T09:00:27.171Z,30.92
2022-08-17T09:02:53.482Z,31.21
2022-08-17T09:05:19.826Z,31.01
2022-08-17T09:07:46.392Z,30.96
2022-08-17T09:10:13.612Z,31.10
2022-08-17T09:12:40.021Z,31.35
2022-08-17T09:15:09.565Z,31.00
2022-08-17T09:17:39.112Z,31.37
2022-08-17T09:20:05.394Z,31.69
2022-08-17T09:22:31.751Z,31.42
2022-08-17T09:24:58.330Z,31.49
2022-08-17T09:27:25.463Z,31.48
2022-08-17T09:29:51.763Z,31.33
2022-08-17T09:32:18.129Z,31.55
2022-08-17T09:34:47.000Z,31.72
2022-08-17T09:37:14.867Z,31.47
2022-08-17T09:39:41.250Z,31.56
2022-08-17T09:42:07.619Z,31.48
2022-08-17T09:44:33.920Z,31.70
2022-08-17T09:47:00.217Z,31.77
2022-08-17T09:49:26.512Z,31.79
2022-08-17T09:51:52.982Z,32.20
2022-08-17T09:54:37.955Z,32.56
2022-08-17T09:57:28.176Z,32.65
2022-08-17T09:59:51.037Z,32.79
2022-08-17T10:02:17.364Z,32.62
2022-08-17T10:04:43.719Z,32.32
2022-08-17T10:07:10.005Z,32.56
2022-08-17T10:09:36.320Z,32.82
2022-08-17T10:12:20.094Z,32.69
2022-08-17T10:14:46.410Z,32.22
2022-08-17T10:17:20.368Z,32.46
2022-08-17T10:19:46.687Z,32.17
2022-08-17T10:22:34.559Z,32.41
2022-08-17T10:25:23.654Z,32.56
2022-08-17T10:27:52.392Z,33.02
2022-08-17T10:30:18.898Z,32.63
2022-08-17T10:32:45.198Z,32.60
2022-08-17T10:35:11.508Z,32.85
2022-08-17T10:37:37.813Z,33.24
2022-08-17T10:40:04.188Z,33.37
2022-08-17T10:42:33.047Z,33.54
2022-08-17T10:45:00.499Z,33.61
2022-08-17T10:47:27.509Z,33.95
2022-08-17T10:49:55.921Z,33.39
2022-08-17T10:52:22.646Z,32.53
2022-08-17T10:54:51.296Z,32.49
2022-08-17T10:57:18.036Z,32.73
2022-08-17T10:59:44.321Z,33.34
2022-08-17T11:02:10.609Z,33.12
2022-08-17T11:04:37.065Z,33.67
2022-08-17T11:07:03.293Z,33.84
2022-08-17T11:09:29.740Z,34.17
2022-08-17T11:11:55.984Z,33.83
2022-08-17T11:14:23.911Z,33.82
2022-08-17T11:16:50.221Z,34.13
2022-08-17T11:19:16.533Z,34.19
2022-08-17T11:21:42.846Z,33.65
2022-08-17T11:24:11.687Z,33.67
2022-08-17T11:26:38.416Z,33.67
2022-08-17T11:29:05.204Z,33.83
2022-08-17T11:31:37.858Z,33.81
2022-08-17T11:34:06.028Z,33.98
2022-08-17T11:36:32.339Z,33.78
2022-08-17T11:38:58.625Z,33.46
2022-08-17T11:41:27.330Z,33.94
2022-08-17T11:43:53.633Z,34.18
2022-08-17T11:46:19.935Z,33.85
2022-08-17T11:49:04.707Z,34.05
2022-08-17T11:51:33.873Z,34.51
2022-08-17T11:54:30.667Z,34.19
2022-08-17T11:56:46.545Z,34.54
2022-08-17T11:59:13.620Z,34.16
2022-08-17T12:01:40.307Z,34.34
2022-08-17T12:04:06.927Z,34.42
2022-08-17T12:06:33.280Z,34.55
2022-08-17T12:08:59.530Z,34.74
2022-08-17T12:12:01.607Z,34.68
2022-08-17T12:14:17.756Z,34.44
2022-08-17T12:16:45.588Z,34.60
2022-08-17T12:19:11.948Z,33.97
2022-08-17T12:21:38.256Z,33.99
2022-08-17T12:24:06.461Z,34.34
2022-08-17T12:26:32.984Z,34.44
2022-08-17T12:28:59.762Z,34.49
2022-08-17T12:31:27.484Z,34.58
2022-08-17T12:33:54.056Z,34.65
2022-08-17T12:36:20.837Z,34.92
2022-08-17T12:38:47.129Z,34.76
2022-08-17T12:41:28.948Z,34.75
2022-08-17T12:43:55.259Z,34.70
2022-08-17T12:46:21.565Z,34.98
2022-08-17T12:48:59.373Z,35.09
2022-08-17T12:51:26.356Z,35.20
2022-08-17T12:53:52.651Z,35.14
2022-08-17T12:56:21.194Z,35.34
2022-08-17T12:58:47.557Z,35.55
2022-08-17T13:01:13.959Z,35.36
2022-08-17T13:03:40.188Z,35.42
2022-08-17T13:06:06.525Z,35.44
2022-08-17T13:08:32.760Z,35.47
2022-08-17T13:10:59.085Z,35.12
2022-08-17T13:13:26.269Z,35.17
2022-08-17T13:15:52.581Z,35.29
2022-08-17T13:18:18.809Z,35.27
2022-08-17T13:20:45.129Z,35.49
2022-08-17T13:23:12.669Z,35.30
2022-08-17T13:25:39.024Z,35.59
2022-08-17T13:28:05.328Z,35.64
2022-08-17T13:30:33.266Z,35.24
2022-08-17T13:32:59.644Z,35.17
2022-08-17T13:35:40.093Z,35.45
2022-08-17T13:38:06.732Z,35.69
2022-08-17T13:40:33.029Z,35.68
2022-08-17T13:42:59.383Z,35.74
2022-08-17T13:45:36.227Z,35.40
2022-08-17T13:48:03.292Z,35.84
2022-08-17T13:50:29.603Z,34.61
2022-08-17T13:52:55.852Z,34.84
2022-08-17T13:55:22.151Z,35.05
2022-08-17T13:57:48.565Z,35.62
2022-08-17T14:00:29.881Z,35.68
2022-08-17T14:02:56.179Z,35.60
2022-08-17T14:05:22.481Z,34.92
2022-08-17T14:07:51.809Z,35.24
2022-08-17T14:10:18.216Z,35.24
2022-08-17T14:12:44.528Z,35.25
2022-08-17T14:15:10.764Z,35.40
2022-08-17T14:17:39.113Z,35.46
2022-08-17T14:20:05.604Z,35.44
2022-08-17T14:22:32.000Z,35.21
2022-08-17T14:24:58.230Z,35.31
2022-08-17T14:27:27.918Z,35.21
2022-08-17T14:29:54.229Z,35.28
2022-08-17T14:32:20.540Z,35.29
2022-08-17T14:34:46.992Z,35.53
2022-08-17T14:37:13.335Z,35.14
2022-08-17T14:39:39.787Z,35.28
2022-08-17T14:42:06.148Z,35.30
2022-08-17T14:44:32.552Z,35.28
2022-08-17T14:46:58.808Z,34.71
2022-08-17T14:49:25.916Z,35.00
2022-08-17T14:51:52.202Z,34.68
2022-08-17T14:54:28.828Z,35.06
2022-08-17T14:57:02.856Z,35.26
2022-08-17T14:59:47.327Z,34.94
2022-08-17T15:02:16.957Z,35.20
2022-08-17T15:04:48.032Z,35.31
2022-08-17T15:07:14.331Z,35.28
2022-08-17T15:09:40.656Z,35.18
2022-08-17T15:12:07.004Z,35.17
2022-08-17T15:14:33.260Z,35.07
2022-08-17T15:16:59.644Z,35.20
2022-08-17T15:19:25.887Z,35.33
2022-08-17T15:21:52.183Z,35.36
2022-08-17T15:24:18.484Z,35.21
2022-08-17T15:26:44.790Z,35.25
2022-08-17T15:29:11.104Z,35.03
2022-08-17T15:31:37.917Z,35.13
2022-08-17T15:34:05.261Z,35.07
2022-08-17T15:36:34.327Z,34.50
2022-08-17T15:39:00.621Z,34.86
2022-08-17T15:41:28.037Z,34.63
2022-08-17T15:43:54.335Z,34.73
2022-08-17T15:46:20.903Z,34.81
2022-08-17T15:48:47.220Z,34.70
2022-08-17T15:51:13.507Z,34.89
2022-08-17T15:53:39.819Z,34.75
2022-08-17T15:56:06.109Z,34.89
2022-08-17T15:58:33.319Z,34.77
2022-08-17T16:01:16.535Z,34.78
2022-08-17T16:04:04.392Z,34.67
2022-08-17T16:06:32.694Z,34.27
2022-08-17T16:09:00.234Z,34.41
2022-08-17T16:11:26.517Z,34.25
2022-08-17T16:13:55.117Z,34.20
2022-08-17T16:16:23.557Z,34.41
2022-08-17T16:18:53.655Z,34.44
2022-08-17T16:21:26.830Z,34.54
2022-08-17T16:23:53.155Z,34.49
2022-08-17T16:26:19.458Z,34.56
2022-08-17T16:28:45.739Z,34.55
2022-08-17T16:31:12.193Z,34.51
2022-08-17T16:33:38.925Z,34.45
2022-08-17T16:36:05.249Z,34.46
2022-08-17T16:38:31.557Z,34.48
2022-08-17T16:40:57.848Z,34.31
2022-08-17T16:43:24.140Z,34.36
2022-08-17T16:45:52.274Z,34.15
2022-08-17T16:48:18.679Z,34.15
2022-08-17T16:51:03.511Z,34.05
2022-08-17T16:53:30.939Z,34.01
2022-08-17T16:55:57.298Z,33.99
2022-08-17T16:58:23.635Z,33.93
2022-08-17T17:00:50.014Z,33.90
2022-08-17T17:03:19.506Z,33.85
2022-08-17T17:05:47.878Z,33.79
2022-08-17T17:08:21.396Z,33.70
2022-08-17T17:10:47.811Z,33.66
2022-08-17T17:13:14.104Z,33.58
2022-08-17T17:15:41.395Z,33.51
2022-08-17T17:18:07.692Z,33.38
2022-08-17T17:20:35.359Z,33.27
2022-08-17T17:23:01.649Z,33.17
2022-08-17T17:25:27.952Z,33.07
2022-08-17T17:27:54.336Z,32.98
2022-08-17T17:30:24.220Z,32.82
2022-08-17T17:32:50.523Z,32.75
2022-08-17T17:35:16.832Z,32.66
2022-08-17T17:37:43.139Z,32.50
2022-08-17T17:40:09.598Z,32.44
2022-08-17T17:42:35.900Z,32.36
2022-08-17T17:45:02.232Z,32.30
2022-08-17T17:47:28.613Z,32.23
2022-08-17T17:49:54.930Z,32.14
2022-08-17T17:52:21.238Z,32.06
2022-08-17T17:54:47.571Z,32.01
2022-08-17T17:57:13.873Z,31.91
2022-08-17T17:59:43.902Z,31.61
2022-08-17T18:02:10.605Z,31.42
2022-08-17T18:04:36.942Z,31.52
2022-08-17T18:07:03.299Z,31.50
2022-08-17T18:09:33.883Z,31.48
2022-08-17T18:12:00.485Z,31.42
2022-08-17T18:14:27.342Z,31.40
2022-08-17T18:16:54.180Z,31.34
2022-08-17T18:19:20.761Z,31.24
2022-08-17T18:21:47.031Z,31.15
2022-08-17T18:24:13.320Z,31.05
2022-08-17T18:26:40.124Z,30.98
2022-08-17T18:29:10.092Z,30.80
2022-08-17T18:31:36.461Z,30.76
2022-08-17T18:34:02.750Z,30.68
2022-08-17T18:36:29.080Z,30.59
2022-08-17T18:38:55.376Z,30.25
2022-08-17T18:41:23.517Z,30.30
2022-08-17T18:43:53.687Z,29.89
2022-08-17T18:46:28.757Z,29.99
2022-08-17T18:48:59.065Z,30.04
2022-08-17T18:51:39.841Z,30.04
2022-08-17T18:54:08.921Z,29.87
2022-08-17T18:56:35.226Z,29.82
2022-08-17T18:59:02.438Z,29.72
2022-08-17T19:01:42.009Z,29.62
2022-08-17T19:04:15.605Z,29.58
2022-08-17T19:06:41.889Z,29.66
2022-08-17T19:09:08.226Z,29.62
2022-08-17T19:11:34.533Z,29.56
2022-08-17T19:14:00.905Z,29.52
2022-08-17T19:16:27.205Z,29.49
2022-08-17T19:18:53.559Z,29.43
2022-08-17T19:21:19.851Z,29.42
2022-08-17T19:23:53.366Z,29.32
2022-08-17T19:26:54.308Z,29.17
2022-08-17T19:29:07.444Z,28.87
2022-08-17T19:31:36.019Z,29.00
2022-08-17T19:34:02.370Z,29.00
2022-08-17T19:36:28.659Z,28.96
2022-08-17T19:38:54.952Z,28.89
2022-08-17T19:41:21.239Z,28.88
2022-08-17T19:43:47.987Z,28.84
2022-08-17T19:46:14.270Z,28.83
2022-08-17T19:48:40.592Z,28.74
2022-08-17T19:51:06.953Z,28.62
2022-08-17T19:53:54.074Z,28.67
2022-08-17T19:56:20.581Z,28.61
2022-08-17T19:58:46.881Z,27.93
2022-08-17T20:01:13.571Z,28.16
2022-08-17T20:03:39.924Z,28.25
2022-08-17T20:06:13.038Z,27.98
2022-08-17T20:08:39.964Z,28.17
2022-08-17T20:11:06.262Z,28.09
2022-08-17T20:13:33.003Z,28.15
2022-08-17T20:16:00.150Z,28.09
2022-08-17T20:18:26.540Z,27.85
2022-08-17T20:20:54.958Z,27.92
2022-08-17T20:23:22.170Z,28.00
2022-08-17T20:25:48.483Z,28.00
2022-08-17T20:28:14.818Z,27.94
2022-08-17T20:30:41.113Z,27.95
2022-08-17T20:33:07.425Z,27.95
2022-08-17T20:35:33.997Z,27.88
2022-08-17T20:38:02.082Z,27.88
2022-08-17T20:40:28.400Z,27.79
2022-08-17T20:42:54.735Z,27.69
2022-08-17T20:45:21.037Z,27.65
2022-08-17T20:48:07.803Z,27.64
2022-08-17T20:50:34.214Z,27.61
2022-08-17T20:53:00.525Z,27.56
2022-08-17T20:55:26.821Z,27.51
2022-08-17T20:57:53.428Z,27.45
2022-08-17T21:00:20.797Z,27.39
2022-08-17T21:02:47.111Z,27.19
2022-08-17T21:05:13.399Z,27.24
2022-08-17T21:07:43.202Z,27.17
2022-08-17T21:10:10.241Z,27.20
2022-08-17T21:12:36.564Z,27.27
2022-08-17T21:15:02.868Z,27.26
2022-08-17T21:17:29.510Z,27.19
2022-08-17T21:20:10.208Z,27.18
2022-08-17T21:22:38.004Z,27.10
2022-08-17T21:25:04.301Z,26.91
2022-08-17T21:27:30.585Z,26.94
2022-08-17T21:29:57.227Z,26.93
2022-08-17T21:32:23.762Z,26.94
2022-08-17T21:34:51.456Z,26.98
2022-08-17T21:37:17.821Z,26.95
2022-08-17T21:39:44.208Z,26.85
2022-08-17T21:42:10.966Z,26.81
2022-08-17T21:44:37.258Z,26.71
2022-08-17T21:47:03.873Z,26.72
2022-08-17T21:49:30.178Z,26.62
2022-08-17T21:52:04.210Z,26.76
2022-08-17T21:54:31.318Z,26.82
2022-08-17T21:56:58.041Z,26.65
2022-08-17T21:59:27.359Z,26.54
2022-08-17T22:01:53.645Z,26.45
2022-08-17T22:04:19.933Z,26.40
2022-08-17T22:06:54.287Z,26.23
2022-08-17T22:09:23.333Z,26.22
2022-08-17T22:11:51.193Z,26.17
2022-08-17T22:14:17.550Z,26.10
2022-08-17T22:16:43.860Z,26.17
2022-08-17T22:19:11.334Z,26.19
2022-08-17T22:21:37.622Z,26.17
2022-08-17T22:24:03.977Z,26.13
2022-08-17T22:26:30.928Z,26.11
2022-08-17T22:28:57.222Z,26.10
2022-08-17T22:31:23.536Z,26.04
2022-08-17T22:33:49.862Z,25.94
2022-08-17T22:36:16.152Z,25.89
2022-08-17T22:38:43.476Z,25.84
2022-08-17T22:41:10.021Z,25.86
2022-08-17T22:43:36.310Z,25.94
2022-08-17T22:46:02.598Z,25.90
2022-08-17T22:48:28.898Z,25.88
2022-08-17T22:50:55.205Z,25.81
2022-08-17T22:53:39.994Z,25.82
2022-08-17T22:56:24.824Z,25.91
2022-08-17T22:59:11.120Z,25.78
2022-08-17T23:01:39.037Z,25.75
2022-08-17T23:04:05.799Z,25.74
2022-08-17T23:06:33.782Z,25.76
2022-08-17T23:09:01.588Z,25.68
2022-08-17T23:11:39.446Z,25.57
2022-08-17T23:14:14.461Z,25.58
2022-08-17T23:16:42.556Z,25.53
2022-08-17T23:19:09.838Z,25.42
2022-08-17T23:21:37.287Z,25.37
2022-08-17T23:24:04.567Z,25.32
2022-08-17T23:26:33.019Z,25.28
2022-08-17T23:29:04.401Z,25.16
2022-08-17T23:31:32.932Z,25.11
2022-08-17T23:33:59.484Z,25.03
2022-08-17T23:36:28.176Z,24.97
2022-08-17T23:38:54.560Z,24.82
2022-08-17T23:41:20.861Z,24.83
2022-08-17T23:43:47.187Z,24.86
2022-08-17T23:46:13.512Z,24.84
2022-08-17T23:48:41.004Z,24.78
2022-08-17T23:51:08.995Z,24.70
2022-08-17T23:53:36.775Z,24.59
2022-08-17T23:56:09.339Z,24.39
2022-08-17T23:58:36.239Z,24.48
